Time;durP1;ratioP1;P1;durP2;ratioP2;P2;SDS_P1;SDS_P2;PMS_P1;PMS_P2;Temp;Humidity;BMP_temperature;BMP_pressure;BME280_temperature;BME280_humidity;BME280_pressure;Samples;Min_cycle;Max_cycle;Signal;HPM_P1;HPM_P2
2023/07/30 00:02:16;;;;;;;5.90;4.40;;;17.20;99.90;;;;;;4961115;28;20478;-66
2023/07/30 00:04:44;;;;;;;5.87;4.60;;;17.20;99.90;;;;;;4960415;29;20775;-65
2023/07/30 00:07:11;;;;;;;6.00;4.77;;;17.20;99.90;;;;;;4961507;29;20470;-66
2023/07/30 00:09:40;;;;;;;5.60;5.07;;;17.10;99.90;;;;;;4961595;29;20557;-65
2023/07/30 00:12:08;;;;;;;7.03;4.60;;;17.10;1.00;;;;;;4960885;29;20896;-66
2023/07/30 00:14:36;;;;;;;7.50;5.20;;;17.00;99.90;;;;;;4961209;29;20458;-66
2023/07/30 00:17:03;;;;;;;7.00;5.23;;;17.00;1.00;;;;;;4960957;28;20466;-65
2023/07/30 00:19:31;;;;;;;5.93;5.33;;;17.00;54.00;;;;;;4960351;28;20498;-65
2023/07/30 00:21:58;;;;;;;6.70;5.00;;;17.00;1.00;;;;;;4961107;28;20872;-65
2023/07/30 00:24:25;;;;;;;7.73;4.57;;;17.00;1.00;;;;;;4960593;29;20446;-66
2023/07/30 00:26:53;;;;;;;6.10;5.23;;;17.00;1.00;;;;;;4960863;29;20442;-66
2023/07/30 00:29:21;;;;;;;5.70;5.10;;;17.00;1.00;;;;;;4960308;29;20444;-64
2023/07/30 00:31:48;;;;;;;7.50;4.73;;;17.00;1.00;;;;;;4960355;29;20561;-66
2023/07/30 00:34:15;;;;;;;5.70;4.90;;;16.90;1.00;;;;;;4960565;29;20519;-66
2023/07/30 00:36:42;;;;;;;7.83;4.40;;;16.90;99.90;;;;;;4960917;28;20769;-66
2023/07/30 00:39:11;;;;;;;8.00;4.67;;;16.80;99.90;;;;;;4960382;29;20471;-65
2023/07/30 00:41:38;;;;;;;8.77;4.77;;;16.80;1.00;;;;;;4960636;29;20471;-65
2023/07/30 00:44:07;;;;;;;6.70;5.40;;;16.70;99.90;;;;;;4960454;29;20445;-65
2023/07/30 00:46:34;;;;;;;7.30;4.87;;;16.70;99.90;;;;;;4960068;29;20502;-65
2023/07/30 00:49:02;;;;;;;6.20;5.00;;;16.60;1.00;;;;;;4960545;29;20998;-65
2023/07/30 00:51:32;;;;;;;7.63;4.67;;;16.60;1.00;;;;;;4960462;29;20749;-65
2023/07/30 00:54:00;;;;;;;6.70;4.40;;;16.50;99.90;;;;;;4959548;29;20462;-65
2023/07/30 00:56:28;;;;;;;7.10;3.60;;;16.50;99.90;;;;;;4959940;29;20473;-65
2023/07/30 00:58:56;;;;;;;6.03;4.40;;;16.50;99.90;;;;;;4960354;28;20467;-66
2023/07/30 01:01:24;;;;;;;6.57;4.53;;;16.40;99.90;;;;;;4960084;29;20593;-65
2023/07/30 01:03:52;;;;;;;7.00;3.93;;;16.40;99.90;;;;;;4959733;29;20477;-66
2023/07/30 01:06:20;;;;;;;13.10;5.20;;;16.40;99.90;;;;;;4959854;29;20569;-66
2023/07/30 01:08:47;;;;;;;5.20;4.50;;;16.30;31.80;;;;;;4959982;29;20467;-66
2023/07/30 01:11:16;;;;;;;7.80;5.80;;;16.20;51.00;;;;;;4960083;29;20467;-65
2023/07/30 01:13:44;;;;;;;6.10;4.70;;;16.20;35.40;;;;;;4960029;29;20521;-65
2023/07/30 01:16:12;;;;;;;8.27;4.30;;;16.20;95.70;;;;;;4959616;29;20499;-65
2023/07/30 01:18:41;;;;;;;8.57;5.03;;;16.10;1.00;;;;;;4961556;28;20490;-66
2023/07/30 01:21:09;;;;;;;8.00;4.67;;;16.10;41.90;;;;;;4979245;28;20530;-65
2023/07/30 01:23:37;;;;;;;6.53;4.17;;;16.00;1.00;;;;;;4979245;28;20942;-65
2023/07/30 01:26:09;;;;;;;7.63;4.13;;;15.90;1.00;;;;;;4978747;28;20568;-65
2023/07/30 01:28:43;;;;;;;7.60;4.50;;;15.90;1.00;;;;;;4979039;28;20875;-65
2023/07/30 01:31:15;;;;;;;6.43;3.50;;;15.80;1.00;;;;;;4978600;28;20472;-65
2023/07/30 01:33:43;;;;;;;7.07;4.63;;;15.90;1.00;;;;;;4979100;28;20462;-65
2023/07/30 01:36:16;;;;;;;7.13;4.27;;;15.90;1.00;;;;;;4978077;28;20465;-64
2023/07/30 01:38:44;;;;;;;6.20;4.07;;;15.90;1.00;;;;;;4979117;28;20564;-65
2023/07/30 01:41:12;;;;;;;6.20;4.47;;;15.90;1.00;;;;;;4978761;28;20504;-65
2023/07/30 01:43:39;;;;;;;7.80;4.80;;;15.90;35.90;;;;;;4978953;28;20770;-65
2023/07/30 01:46:06;;;;;;;5.90;4.80;;;16.00;99.90;;;;;;4977570;28;20438;-64
2023/07/30 01:48:33;;;;;;;6.97;4.20;;;16.00;1.00;;;;;;4976879;28;20475;-65
2023/07/30 01:51:00;;;;;;;10.07;5.33;;;16.00;1.00;;;;;;4976754;28;20916;-65
2023/07/30 01:53:29;;;;;;;5.40;4.47;;;16.00;99.90;;;;;;4977148;28;20465;-64
2023/07/30 01:55:56;;;;;;;5.90;4.67;;;16.00;99.90;;;;;;4976867;28;20876;-64
2023/07/30 01:58:23;;;;;;;9.33;4.60;;;16.00;99.90;;;;;;4976935;28;20445;-63
2023/07/30 02:00:50;;;;;;;6.40;4.50;;;16.00;1.00;;;;;;4977955;28;20762;-65
2023/07/30 02:03:18;;;;;;;6.20;4.73;;;16.10;1.00;;;;;;4978632;28;20466;-65
2023/07/30 02:05:45;;;;;;;8.10;4.83;;;16.10;1.00;;;;;;4978104;28;20779;-65
2023/07/30 02:08:13;;;;;;;7.77;5.17;;;16.10;1.00;;;;;;4977716;28;20560;-65
2023/07/30 02:10:41;;;;;;;10.43;5.17;;;16.10;99.90;;;;;;4978620;28;20473;-65
2023/07/30 02:13:08;;;;;;;8.27;4.43;;;16.10;1.00;;;;;;4978515;28;20440;-65
2023/07/30 02:15:36;;;;;;;5.77;3.77;;;16.20;99.90;;;;;;4978498;28;20901;-65
2023/07/30 02:18:03;;;;;;;11.83;4.57;;;16.20;1.00;;;;;;4977981;28;20922;-65
2023/07/30 02:20:30;;;;;;;5.67;4.10;;;16.30;1.00;;;;;;4977970;28;20499;-65
2023/07/30 02:22:57;;;;;;;6.60;4.30;;;16.20;99.90;;;;;;4978348;28;20469;-66
2023/07/30 02:25:24;;;;;;;8.87;4.47;;;16.30;99.90;;;;;;4978407;28;20465;-65
2023/07/30 02:27:53;;;;;;;7.93;4.30;;;16.20;99.90;;;;;;4978331;28;20875;-65
2023/07/30 02:30:20;;;;;;;11.67;4.10;;;16.20;99.90;;;;;;4978043;28;20774;-65
2023/07/30 02:32:47;;;;;;;6.27;4.40;;;16.20;99.90;;;;;;4978110;28;20447;-65
2023/07/30 02:35:14;;;;;;;5.63;4.10;;;16.20;99.90;;;;;;4978239;28;20473;-65
2023/07/30 02:37:41;;;;;;;7.10;4.37;;;16.20;99.90;;;;;;4978554;28;20891;-66
2023/07/30 02:40:09;;;;;;;9.50;5.10;;;16.20;99.90;;;;;;4978202;28;20764;-66
2023/07/30 02:42:37;;;;;;;6.20;4.27;;;16.10;99.90;;;;;;4980067;28;20466;-66
2023/07/30 02:45:07;;;;;;;6.37;4.30;;;16.10;99.90;;;;;;4982019;28;20451;-65
2023/07/30 02:47:34;;;;;;;7.77;4.97;;;16.10;99.90;;;;;;4982426;28;20751;-65
2023/07/30 02:50:01;;;;;;;10.70;4.57;;;16.00;99.90;;;;;;4981521;28;20461;-66
2023/07/30 02:52:28;;;;;;;7.73;4.30;;;16.00;99.90;;;;;;4981989;28;20479;-66
2023/07/30 02:54:55;;;;;;;8.20;4.20;;;15.90;99.90;;;;;;4981936;28;20940;-66
2023/07/30 02:57:22;;;;;;;9.20;4.60;;;15.90;99.90;;;;;;4981880;28;20472;-64
2023/07/30 02:59:50;;;;;;;5.97;4.20;;;15.90;99.90;;;;;;4981302;28;20556;-66
2023/07/30 03:02:19;;;;;;;8.00;4.83;;;15.80;99.90;;;;;;4981497;28;20560;-65
2023/07/30 03:04:46;;;;;;;7.27;4.57;;;15.80;99.90;;;;;;4981701;28;20508;-66
2023/07/30 03:07:13;;;;;;;9.00;4.63;;;15.80;99.90;;;;;;4981193;28;20548;-65
2023/07/30 03:09:40;;;;;;;8.40;4.90;;;15.80;99.90;;;;;;4981973;28;20556;-66
2023/07/30 03:12:09;;;;;;;5.97;3.93;;;15.70;99.90;;;;;;4980454;28;20462;-65
2023/07/30 03:14:36;;;;;;;6.70;4.10;;;15.70;99.90;;;;;;4981189;28;20470;-66
2023/07/30 03:17:04;;;;;;;9.77;5.30;;;15.70;99.90;;;;;;4981494;28;20466;-64
2023/07/30 03:19:33;;;;;;;8.23;4.20;;;15.70;99.90;;;;;;4981569;28;20807;-64
2023/07/30 03:22:00;;;;;;;6.80;4.33;;;15.70;1.00;;;;;;4980995;28;20529;-65
2023/07/30 03:24:27;;;;;;;8.40;4.23;;;15.70;1.00;;;;;;4981398;28;20469;-66
2023/07/30 03:26:54;;;;;;;6.90;4.23;;;15.70;1.00;;;;;;4981325;28;20887;-65
2023/07/30 03:29:22;;;;;;;6.37;4.90;;;15.70;1.00;;;;;;4981295;28;20501;-65
2023/07/30 03:31:49;;;;;;;8.43;4.03;;;15.70;1.00;;;;;;4981269;28;20462;-66
2023/07/30 03:34:16;;;;;;;10.30;5.10;;;15.70;1.00;;;;;;4981060;28;20896;-65
2023/07/30 03:36:45;;;;;;;6.23;4.00;;;15.60;99.90;;;;;;4981238;28;20543;-65
2023/07/30 03:39:12;;;;;;;8.70;5.43;;;15.60;1.00;;;;;;4981168;28;20894;-65
2023/07/30 03:41:39;;;;;;;6.90;4.60;;;15.60;1.00;;;;;;4980741;28;20508;-64
2023/07/30 03:44:06;;;;;;;9.37;4.30;;;15.60;1.00;;;;;;4980724;28;20476;-65
2023/07/30 03:46:33;;;;;;;9.17;5.37;;;15.60;1.00;;;;;;4980872;28;20766;-65
2023/07/30 03:49:01;;;;;;;11.27;5.40;;;15.50;1.00;;;;;;4980667;28;20440;-65
2023/07/30 03:51:28;;;;;;;8.93;5.47;;;15.50;1.00;;;;;;4980747;28;20462;-65
2023/07/30 03:53:57;;;;;;;6.60;4.73;;;15.50;1.00;;;;;;4979561;28;20468;-66
2023/07/30 03:56:25;;;;;;;9.37;4.53;;;15.50;1.00;;;;;;4980810;28;20472;-65
2023/07/30 03:58:52;;;;;;;7.67;4.50;;;15.50;1.00;;;;;;4980602;28;20497;-65
2023/07/30 04:01:19;;;;;;;9.90;5.43;;;15.40;1.00;;;;;;4980834;28;20490;-65
2023/07/30 04:03:46;;;;;;;7.47;4.77;;;15.40;1.00;;;;;;4980144;28;20443;-66
2023/07/30 04:06:13;;;;;;;8.17;4.30;;;15.40;1.00;;;;;;4980581;28;20442;-65
2023/07/30 04:08:40;;;;;;;8.13;4.60;;;15.50;1.00;;;;;;4980388;28;20470;-65
2023/07/30 04:11:09;;;;;;;8.80;5.13;;;15.50;1.00;;;;;;4980770;28;20458;-66
2023/07/30 04:13:36;;;;;;;6.47;4.20;;;15.50;1.00;;;;;;4980569;28;20466;-65
2023/07/30 04:16:04;;;;;;;8.90;4.73;;;15.50;1.00;;;;;;4980604;28;20441;-63
2023/07/30 04:18:31;;;;;;;8.50;4.67;;;15.50;1.00;;;;;;4979224;28;20500;-66
2023/07/30 04:20:58;;;;;;;16.50;5.43;;;15.50;1.00;;;;;;4980213;28;20490;-66
2023/07/30 04:23:25;;;;;;;6.60;3.80;;;15.50;99.90;;;;;;4980449;28;20524;-65
2023/07/30 04:25:52;;;;;;;9.43;4.77;;;15.50;99.90;;;;;;4980207;28;20470;-66
2023/07/30 04:28:21;;;;;;;10.77;4.90;;;15.60;99.90;;;;;;4980082;28;20903;-66
2023/07/30 04:30:48;;;;;;;8.70;5.17;;;15.60;99.90;;;;;;4980089;28;20436;-66
2023/07/30 04:33:15;;;;;;;7.27;4.97;;;15.70;99.90;;;;;;4980351;28;20468;-66
2023/07/30 04:35:43;;;;;;;8.33;4.40;;;15.70;99.90;;;;;;4980446;28;20875;-66
2023/07/30 04:38:10;;;;;;;10.70;4.90;;;15.70;99.90;;;;;;4979725;28;20483;-67
2023/07/30 04:40:37;;;;;;;7.40;4.80;;;15.80;99.90;;;;;;4979902;28;21030;-66
2023/07/30 04:43:04;;;;;;;7.30;4.80;;;15.80;99.90;;;;;;4980411;28;20465;-67
2023/07/30 04:45:32;;;;;;;9.63;4.13;;;15.80;90.60;;;;;;4980028;28;20472;-66
2023/07/30 04:48:00;;;;;;;10.00;4.80;;;15.80;99.90;;;;;;4979708;28;20472;-66
2023/07/30 04:50:27;;;;;;;9.83;4.83;;;15.70;99.90;;;;;;4979723;28;20834;-66
2023/07/30 04:52:54;;;;;;;11.93;4.37;;;15.70;99.90;;;;;;4979711;28;20466;-64
2023/07/30 04:55:21;;;;;;;8.43;4.10;;;15.60;99.90;;;;;;4978856;28;20538;-64
2023/07/30 04:57:48;;;;;;;10.73;3.97;;;15.60;99.90;;;;;;4979096;28;20488;-64
2023/07/30 05:00:15;;;;;;;10.17;4.73;;;15.60;99.90;;;;;;4979974;28;20466;-64
2023/07/30 05:02:44;;;;;;;9.50;4.33;;;15.60;99.90;;;;;;4979305;28;20548;-65
2023/07/30 05:05:11;;;;;;;8.57;4.00;;;15.70;99.90;;;;;;4979570;28;20465;-66
2023/07/30 05:07:38;;;;;;;9.70;4.57;;;15.70;99.90;;;;;;4979538;28;20466;-65
2023/07/30 05:10:09;;;;;;;9.77;4.50;;;15.70;99.90;;;;;;4979362;28;20469;-66
2023/07/30 05:12:38;;;;;;;6.43;3.80;;;15.70;99.90;;;;;;4979443;28;20454;-67
2023/07/30 05:15:06;;;;;;;9.70;4.20;;;15.70;99.90;;;;;;4979313;28;20497;-66
2023/07/30 05:17:33;;;;;;;7.97;3.83;;;15.80;99.90;;;;;;4979160;28;20489;-66
2023/07/30 05:20:02;;;;;;;8.80;4.20;;;15.70;99.90;;;;;;4979069;28;20902;-67
2023/07/30 05:22:29;;;;;;;8.27;3.33;;;15.80;99.90;;;;;;4979114;28;20560;-66
2023/07/30 05:24:56;;;;;;;10.27;4.30;;;15.80;99.90;;;;;;4978814;28;20440;-66
2023/07/30 05:27:23;;;;;;;13.30;4.77;;;15.70;99.90;;;;;;4979363;28;20478;-67
2023/07/30 05:29:50;;;;;;;10.40;3.90;;;15.80;99.90;;;;;;4978823;28;20466;-65
2023/07/30 05:32:18;;;;;;;7.47;3.87;;;15.70;99.90;;;;;;4979146;28;20557;-64
2023/07/30 05:34:45;;;;;;;8.70;3.50;;;15.60;99.90;;;;;;4979304;28;20452;-64
2023/07/30 05:37:13;;;;;;;8.80;4.67;;;15.60;1.00;;;;;;4979087;28;20974;-64
2023/07/30 05:39:41;;;;;;;7.60;3.37;;;15.60;1.00;;;;;;4978914;28;20456;-64
2023/07/30 05:42:08;;;;;;;8.50;4.00;;;15.40;1.00;;;;;;4978590;28;20517;-64
2023/07/30 05:44:35;;;;;;;6.40;3.83;;;15.40;99.90;;;;;;4978907;28;20480;-65
2023/07/30 05:47:02;;;;;;;8.80;3.60;;;15.40;1.00;;;;;;4978776;28;20631;-64
2023/07/30 05:49:29;;;;;;;7.60;3.33;;;15.30;1.00;;;;;;4978864;28;20552;-64
2023/07/30 05:51:56;;;;;;;7.73;3.00;;;15.30;1.00;;;;;;4978302;28;20462;-64
2023/07/30 05:54:25;;;;;;;9.33;3.67;;;15.20;1.00;;;;;;4978693;28;20441;-64
2023/07/30 05:56:52;;;;;;;7.50;3.40;;;15.10;1.00;;;;;;4978687;28;20437;-64
2023/07/30 05:59:19;;;;;;;9.67;3.70;;;15.10;99.90;;;;;;4978930;28;20469;-63
2023/07/30 06:01:46;;;;;;;10.50;3.77;;;15.20;99.90;;;;;;4978236;28;20520;-63
2023/07/30 06:04:13;;;;;;;8.77;3.50;;;15.10;99.90;;;;;;4978456;28;20912;-63
2023/07/30 06:06:41;;;;;;;9.83;3.90;;;15.10;99.90;;;;;;4978481;28;20911;-63
2023/07/30 06:09:08;;;;;;;6.93;3.57;;;15.10;1.00;;;;;;4978553;28;20907;-62
2023/07/30 06:11:36;;;;;;;10.40;3.93;;;15.10;99.90;;;;;;4977914;28;20891;-63
2023/07/30 06:14:04;;;;;;;9.37;3.90;;;15.10;1.00;;;;;;4977784;28;20919;-62
2023/07/30 06:16:31;;;;;;;12.20;3.83;;;15.10;99.90;;;;;;4977803;28;20885;-62
2023/07/30 06:18:58;;;;;;;6.30;3.33;;;15.10;1.00;;;;;;4978250;28;20528;-65
2023/07/30 06:21:25;;;;;;;8.60;4.40;;;15.10;74.50;;;;;;4978282;28;20906;-63
2023/07/30 06:23:52;;;;;;;6.90;3.63;;;15.20;1.00;;;;;;4977781;28;20465;-63
2023/07/30 06:26:20;;;;;;;9.80;4.57;;;15.20;99.90;;;;;;4978185;28;20492;-63
2023/07/30 06:28:48;;;;;;;6.07;3.00;;;15.20;1.00;;;;;;4978313;28;20831;-62
2023/07/30 06:31:15;;;;;;;8.17;4.50;;;15.20;99.90;;;;;;4978538;28;20517;-64
2023/07/30 06:33:43;;;;;;;8.50;3.83;;;15.20;29.30;;;;;;4978361;28;20822;-63
2023/07/30 06:36:10;;;;;;;9.50;3.60;;;15.10;1.00;;;;;;4978455;28;20945;-54
2023/07/30 06:38:37;;;;;;;12.43;3.67;;;15.10;1.00;;;;;;4978091;28;20910;-57
2023/07/30 06:41:04;;;;;;;10.90;4.30;;;15.20;1.00;;;;;;4978140;28;20815;-56
2023/07/30 06:43:31;;;;;;;7.57;3.43;;;15.10;99.90;;;;;;4978482;28;20469;-56
2023/07/30 06:46:00;;;;;;;8.37;3.53;;;15.10;1.00;;;;;;4977346;28;20565;-54
2023/07/30 06:48:27;;;;;;;11.10;4.10;;;15.00;1.00;;;;;;4971684;28;20466;-53
2023/07/30 06:50:55;;;;;;;8.63;4.00;;;15.00;1.00;;;;;;4977754;28;20750;-53
2023/07/30 06:53:24;;;;;;;9.17;3.80;;;15.00;99.90;;;;;;4977567;28;20472;-57
2023/07/30 06:55:51;;;;;;;9.30;4.03;;;15.00;1.00;;;;;;4977711;28;20884;-55
2023/07/30 06:58:18;;;;;;;14.90;4.57;;;15.00;1.00;;;;;;4977705;28;20472;-56
2023/07/30 07:00:46;;;;;;;9.67;3.83;;;15.00;1.00;;;;;;4977822;28;20466;-57
2023/07/30 07:03:14;;;;;;;7.67;3.80;;;15.10;1.00;;;;;;4977927;28;20563;-56
2023/07/30 07:05:41;;;;;;;8.97;4.00;;;15.10;99.90;;;;;;4978323;28;20504;-54
2023/07/30 07:08:08;;;;;;;7.53;3.87;;;15.20;1.00;;;;;;4977811;28;20472;-55
2023/07/30 07:10:36;;;;;;;11.43;3.87;;;15.20;99.90;;;;;;4977847;28;20798;-54
2023/07/30 07:13:03;;;;;;;11.03;3.30;;;15.20;45.10;;;;;;4978183;28;20491;-56
2023/07/30 07:15:30;;;;;;;10.43;3.80;;;15.20;1.00;;;;;;4978150;28;20492;-54
2023/07/30 07:17:57;;;;;;;10.47;4.47;;;15.20;1.00;;;;;;4977311;28;20579;-56
2023/07/30 07:20:27;;;;;;;7.67;3.70;;;15.20;1.00;;;;;;4977714;28;20549;-56
2023/07/30 07:22:54;;;;;;;8.50;3.93;;;15.30;1.00;;;;;;4977618;28;20505;-56
2023/07/30 07:25:21;;;;;;;9.30;4.50;;;15.30;1.00;;;;;;4977857;28;20470;-57
2023/07/30 07:27:48;;;;;;;8.63;4.07;;;15.30;99.90;;;;;;4978288;28;20470;-56
2023/07/30 07:30:15;;;;;;;13.93;4.03;;;15.30;99.90;;;;;;4981209;28;20901;-57
2023/07/30 07:32:43;;;;;;;7.43;4.70;;;15.40;99.90;;;;;;4980735;28;20462;-57
2023/07/30 07:35:10;;;;;;;6.30;4.23;;;15.40;15.00;;;;;;4981433;28;20508;-55
2023/07/30 07:37:38;;;;;;;8.07;4.17;;;15.30;1.00;;;;;;4981471;28;20488;-55
2023/07/30 07:40:09;;;;;;;8.07;4.30;;;15.40;34.70;;;;;;4980772;28;20560;-57
2023/07/30 07:42:36;;;;;;;8.20;4.70;;;15.50;13.30;;;;;;4981133;28;20498;-57
2023/07/30 07:45:03;;;;;;;7.50;4.87;;;15.50;60.10;;;;;;4981090;28;20465;-57
2023/07/30 07:47:30;;;;;;;8.47;4.20;;;15.50;1.00;;;;;;4981106;28;20495;-57
2023/07/30 07:49:57;;;;;;;9.70;4.00;;;15.50;1.00;;;;;;4980544;28;20462;-58
2023/07/30 07:52:25;;;;;;;7.60;4.03;;;15.50;1.00;;;;;;4980952;28;20930;-58
2023/07/30 07:54:53;;;;;;;8.10;4.57;;;15.40;99.90;;;;;;4979998;28;20474;-58
2023/07/30 07:57:20;;;;;;;9.57;4.20;;;15.40;1.00;;;;;;4981182;28;20462;-56
2023/07/30 07:59:49;;;;;;;7.90;4.27;;;15.40;1.00;;;;;;4980562;28;20465;-53
2023/07/30 08:02:16;;;;;;;8.00;3.93;;;15.50;29.50;;;;;;4980365;28;20514;-57
2023/07/30 08:04:43;;;;;;;6.20;3.60;;;15.50;99.90;;;;;;4980315;28;20474;-56
2023/07/30 08:07:10;;;;;;;6.83;3.73;;;15.50;99.90;;;;;;4980915;28;20505;-58
2023/07/30 08:09:37;;;;;;;12.87;4.17;;;15.60;1.00;;;;;;4980414;28;20466;-57
2023/07/30 08:12:07;;;;;;;9.17;3.83;;;15.70;1.00;;;;;;4980364;28;20466;-57
2023/07/30 08:14:34;;;;;;;7.60;4.17;;;15.80;1.00;;;;;;4980091;28;20494;-54
2023/07/30 08:17:02;;;;;;;7.93;4.20;;;15.90;1.00;;;;;;4980436;28;20466;-58
2023/07/30 08:19:29;;;;;;;11.60;4.43;;;16.00;22.60;;;;;;4979976;28;20524;-58
2023/07/30 08:21:58;;;;;;;9.70;4.63;;;16.10;1.00;;;;;;4980097;28;21039;-58
2023/07/30 08:24:25;;;;;;;9.93;4.57;;;16.20;1.00;;;;;;4980422;28;20467;-58
2023/07/30 08:26:52;;;;;;;10.33;4.33;;;16.30;1.00;;;;;;4979416;28;20888;-59
2023/07/30 08:29:21;;;;;;;9.80;4.00;;;16.30;99.90;;;;;;4978888;28;20462;-58
2023/07/30 08:31:48;;;;;;;6.97;4.97;;;16.30;99.90;;;;;;4978336;28;20461;-57
2023/07/30 08:34:15;;;;;;;11.13;4.53;;;16.40;1.00;;;;;;4978350;28;20466;-58
2023/07/30 08:36:42;;;;;;;11.53;4.77;;;16.40;99.90;;;;;;4965108;28;20452;-58
2023/07/30 08:39:09;;;;;;;12.57;4.93;;;16.50;99.90;;;;;;4958577;28;20466;-57
2023/07/30 08:41:37;;;;;;;10.90;3.73;;;16.60;99.90;;;;;;4959150;29;20502;-58
2023/07/30 08:44:05;;;;;;;8.30;3.90;;;16.70;99.90;;;;;;4958982;29;20462;-59
2023/07/30 08:46:35;;;;;;;11.07;4.10;;;16.60;99.90;;;;;;4958560;29;20562;-59
2023/07/30 08:49:02;;;;;;;12.43;5.33;;;16.70;99.90;;;;;;4958527;29;20467;-58
2023/07/30 08:51:30;;;;;;;10.27;5.03;;;16.70;49.80;;;;;;4959679;28;20888;-58
2023/07/30 08:53:59;;;;;;;6.30;4.47;;;16.90;98.20;;;;;;4960124;29;20553;-57
2023/07/30 08:56:26;;;;;;;10.50;4.40;;;17.10;30.70;;;;;;4960521;28;20874;-58
2023/07/30 08:58:57;;;;;;;8.80;4.07;;;17.30;21.40;;;;;;4979674;28;20970;-59
2023/07/30 09:01:28;;;;;;;6.83;3.83;;;17.40;1.00;;;;;;4978262;28;20561;-58
2023/07/30 09:04:00;;;;;;;8.90;4.00;;;17.40;1.00;;;;;;4978758;28;20505;-59
2023/07/30 09:06:27;;;;;;;8.97;4.20;;;17.40;1.00;;;;;;4979586;28;20930;-59
2023/07/30 09:08:54;;;;;;;10.00;4.17;;;17.40;1.00;;;;;;4979395;28;20466;-59
2023/07/30 09:11:26;;;;;;;11.23;4.17;;;17.30;1.00;;;;;;4979492;28;20564;-59
2023/07/30 09:13:55;;;;;;;12.90;4.50;;;17.30;1.00;;;;;;4978371;28;20544;-59
2023/07/30 09:16:26;;;;;;;9.20;4.20;;;17.50;1.00;;;;;;4979605;28;20477;-59
2023/07/30 09:18:54;;;;;;;9.90;4.27;;;17.80;1.00;;;;;;4979110;28;20525;-58
2023/07/30 09:21:31;;;;;;;10.63;4.47;;;18.30;1.00;;;;;;4979577;28;20477;-59
2023/07/30 09:24:00;;;;;;;8.77;4.67;;;18.60;1.00;;;;;;4978960;28;20497;-59
2023/07/30 09:26:27;;;;;;;12.60;4.20;;;18.30;1.00;;;;;;4979306;28;20470;-58
2023/07/30 09:28:57;;;;;;;6.73;3.47;;;18.30;1.00;;;;;;4961285;28;20931;-59
2023/07/30 09:31:24;;;;;;;8.43;4.07;;;18.30;1.00;;;;;;4960610;28;20472;-59
2023/07/30 09:33:51;;;;;;;9.23;4.33;;;18.40;1.00;;;;;;4959639;29;20474;-59
2023/07/30 09:36:22;;;;;;;10.67;4.77;;;18.40;1.00;;;;;;4959337;29;20471;-59
2023/07/30 09:38:50;;;;;;;8.20;4.63;;;18.60;1.00;;;;;;4959872;29;20474;-59
2023/07/30 09:41:18;;;;;;;11.67;5.03;;;19.00;1.00;;;;;;4959699;29;20873;-59
2023/07/30 09:43:46;;;;;;;12.00;4.20;;;19.70;1.00;;;;;;4959315;29;20498;-59
2023/07/30 09:46:13;;;;;;;10.53;4.57;;;20.00;99.90;;;;;;4959716;29;20964;-59
2023/07/30 09:48:40;;;;;;;8.80;4.50;;;20.60;1.00;;;;;;4959519;29;20763;-61
2023/07/30 09:51:07;;;;;;;7.90;3.77;;;21.30;99.90;;;;;;4958350;28;20472;-58
2023/07/30 09:53:36;;;;;;;6.87;3.47;;;21.20;99.90;;;;;;4958892;28;20688;-61
2023/07/30 09:56:05;;;;;;;9.07;4.43;;;20.80;99.90;;;;;;4959126;29;20498;-60
2023/07/30 09:58:33;;;;;;;8.23;4.10;;;20.80;99.90;;;;;;4959572;29;20903;-59
2023/07/30 10:01:01;;;;;;;5.70;3.20;;;20.80;99.90;;;;;;4959606;29;20471;-60
2023/07/30 10:03:29;;;;;;;9.23;4.47;;;20.20;99.90;;;;;;4959258;29;20549;-58
2023/07/30 10:06:03;;;;;;;6.80;3.57;;;20.30;99.90;;;;;;4959137;28;20474;-58
2023/07/30 10:08:35;;;;;;;4.60;3.10;;;21.00;99.90;;;;;;4959151;29;20564;-50
2023/07/30 10:11:06;;;;;;;9.13;3.50;;;21.20;99.90;;;;;;4959289;29;20466;-58
2023/07/30 10:13:34;;;;;;;9.60;3.37;;;21.70;99.90;;;;;;4959373;29;20470;-58
2023/07/30 10:16:01;;;;;;;6.73;3.33;;;21.70;99.90;;;;;;4959091;29;20470;-58
2023/07/30 10:18:39;;;;;;;6.10;3.33;;;22.50;99.90;;;;;;4958765;28;20875;-58
2023/07/30 10:21:08;;;;;;;6.73;3.17;;;22.90;99.90;;;;;;4971170;28;20518;-59
2023/07/30 10:23:36;;;;;;;6.90;2.83;;;22.60;99.90;;;;;;4978169;28;20781;-57
2023/07/30 10:26:12;;;;;;;6.83;3.23;;;22.50;99.90;;;;;;4978326;28;20495;-59
2023/07/30 10:28:43;;;;;;;5.73;3.00;;;22.60;99.90;;;;;;4978325;28;20520;-58
2023/07/30 10:31:13;;;;;;;6.83;3.47;;;22.90;99.90;;;;;;4978652;28;20555;-59
2023/07/30 10:33:51;;;;;;;8.10;3.80;;;23.00;99.90;;;;;;4978351;28;20518;-58
2023/07/30 10:36:20;;;;;;;5.93;3.03;;;23.40;99.90;;;;;;4977956;28;20973;-59
2023/07/30 10:38:47;;;;;;;5.60;3.80;;;23.10;99.90;;;;;;4978224;28;20461;-58
2023/07/30 10:41:17;;;;;;;6.30;3.13;;;23.70;99.90;;;;;;4978104;28;20521;-59
2023/07/30 10:43:47;;;;;;;7.30;2.70;;;23.60;99.90;;;;;;4977829;28;20841;-60
2023/07/30 10:46:16;;;;;;;7.83;3.03;;;23.60;99.90;;;;;;4977085;28;20462;-59
2023/07/30 10:48:44;;;;;;;6.57;3.03;;;23.70;99.90;;;;;;4978038;28;20472;-59
2023/07/30 10:51:13;;;;;;;5.70;3.20;;;24.60;99.90;;;;;;4978161;28;20465;-58
2023/07/30 10:53:43;;;;;;;7.30;3.60;;;24.90;99.90;;;;;;4977963;28;20462;-60
2023/07/30 10:56:11;;;;;;;6.13;3.60;;;24.60;99.90;;;;;;4973506;28;20476;-55
2023/07/30 10:58:40;;;;;;;7.60;3.57;;;24.00;99.90;;;;;;4956080;28;20472;-60
2023/07/30 11:01:08;;;;;;;8.40;3.30;;;23.70;99.90;;;;;;4957205;29;20498;-59
2023/07/30 11:03:37;;;;;;;6.63;2.97;;;23.20;99.90;;;;;;4959119;28;20501;-59
2023/07/30 11:06:05;;;;;;;6.90;3.20;;;22.70;99.90;;;;;;4960544;29;20554;-59
2023/07/30 11:08:37;;;;;;;5.77;3.67;;;22.00;99.90;;;;;;4960517;29;20757;-60
2023/07/30 11:11:04;;;;;;;6.30;3.80;;;21.40;99.90;;;;;;4962175;29;20469;-59
2023/07/30 11:13:39;;;;;;;6.43;3.53;;;20.90;99.90;;;;;;4962258;28;20504;-58
2023/07/30 11:16:10;;;;;;;7.07;3.50;;;20.70;99.90;;;;;;4962384;28;20740;-59
2023/07/30 11:18:38;;;;;;;7.93;3.60;;;20.70;99.90;;;;;;4962444;28;20494;-67
2023/07/30 11:21:06;;;;;;;8.67;3.33;;;21.40;99.90;;;;;;4962299;28;20466;-66
2023/07/30 11:23:34;;;;;;;5.40;2.80;;;22.40;99.90;;;;;;4962449;28;20541;-65
2023/07/30 11:26:02;;;;;;;7.73;3.40;;;23.30;99.90;;;;;;4961731;28;20553;-64
2023/07/30 11:28:30;;;;;;;9.73;3.80;;;23.70;99.90;;;;;;4961863;28;20503;-64
2023/07/30 11:31:02;;;;;;;5.37;3.13;;;22.70;99.90;;;;;;4961566;29;20473;-65
2023/07/30 11:33:32;;;;;;;7.43;2.90;;;22.00;99.90;;;;;;4965288;28;20463;-63
2023/07/30 11:36:03;;;;;;;5.97;3.40;;;21.70;99.90;;;;;;4961508;28;20513;-62
2023/07/30 11:38:31;;;;;;;6.87;3.40;;;21.30;99.90;;;;;;4960144;28;20573;-64
2023/07/30 11:40:59;;;;;;;8.67;3.57;;;21.60;99.90;;;;;;4960955;28;20509;-64
2023/07/30 11:43:27;;;;;;;6.57;3.30;;;22.30;99.90;;;;;;4961113;28;20801;-64
2023/07/30 11:46:13;;;;;;;7.30;3.67;;;22.80;99.90;;;;;;4962110;28;20920;-63
2023/07/30 11:48:45;;;;;;;5.10;2.73;;;22.80;99.90;;;;;;4964592;28;20513;-62
2023/07/30 11:51:24;;;;;;;5.53;3.00;;;22.60;99.90;;;;;;4964534;28;20907;-62
2023/07/30 11:53:52;;;;;;;6.80;3.60;;;22.30;99.90;;;;;;4960929;28;20477;-63
2023/07/30 11:56:22;;;;;;;7.40;3.70;;;22.10;99.90;;;;;;4971886;28;20473;-62
2023/07/30 11:58:50;;;;;;;5.87;2.97;;;21.80;99.90;;;;;;4972066;28;20983;-63
2023/07/30 12:01:18;;;;;;;8.30;3.20;;;21.70;99.90;;;;;;4962097;28;20470;-62
2023/07/30 12:03:48;;;;;;;5.60;3.47;;;21.70;99.90;;;;;;4968327;28;20504;-61
2023/07/30 12:06:15;;;;;;;5.07;3.20;;;21.50;99.90;;;;;;4968517;28;20821;-63
2023/07/30 12:08:42;;;;;;;6.17;3.50;;;20.90;99.90;;;;;;4970274;28;20527;-65
2023/07/30 12:11:11;;;;;;;5.00;3.10;;;20.70;99.90;;;;;;4963638;28;20850;-63
2023/07/30 12:13:46;;;;;;;8.90;3.83;;;20.90;99.90;;;;;;4966684;28;20513;-66
2023/07/30 12:16:14;;;;;;;6.30;3.80;;;21.50;99.90;;;;;;4967363;28;20770;-63
2023/07/30 12:18:41;;;;;;;3.90;3.10;;;21.70;99.90;;;;;;4973230;28;20929;-64
2023/07/30 12:21:11;;;;;;;8.80;3.37;;;21.70;99.90;;;;;;4968911;28;20470;-63
2023/07/30 12:23:39;;;;;;;5.43;3.30;;;21.50;99.90;;;;;;4960428;28;20932;-65
2023/07/30 12:26:06;;;;;;;3.90;3.00;;;21.20;99.90;;;;;;4971072;28;20911;-63
2023/07/30 12:28:34;;;;;;;5.70;3.40;;;21.00;99.90;;;;;;4963246;28;20503;-63
2023/07/30 12:31:02;;;;;;;8.40;2.73;;;20.90;99.90;;;;;;4966124;28;20919;-65
2023/07/30 12:33:29;;;;;;;5.50;3.30;;;20.80;99.90;;;;;;4969137;28;20461;-65
2023/07/30 12:35:56;;;;;;;5.10;3.10;;;20.90;99.90;;;;;;4963097;28;20493;-63
2023/07/30 12:38:26;;;;;;;8.27;2.80;;;21.00;99.90;;;;;;4961022;28;20915;-65
2023/07/30 12:40:53;;;;;;;6.57;3.40;;;20.90;99.90;;;;;;4965468;28;20887;-66
2023/07/30 12:43:21;;;;;;;6.63;3.40;;;21.00;99.90;;;;;;4970513;28;20600;-63
2023/07/30 12:45:48;;;;;;;6.80;3.00;;;21.10;99.90;;;;;;4963706;28;21226;-64
2023/07/30 12:48:16;;;;;;;5.53;2.90;;;21.30;99.90;;;;;;4963045;28;20470;-65
2023/07/30 12:50:43;;;;;;;7.10;3.27;;;21.70;99.90;;;;;;4967526;28;20494;-64
2023/07/30 12:53:11;;;;;;;7.67;2.67;;;22.00;99.90;;;;;;4960208;28;20485;-67